首页
METAR-TAF:

METAR-TAF

机场 :

Stony Rapids, 薩斯喀徹溫, 加拿大

纬度: 59-15N, 经度: 105-50W, 海拔: 250米

当前天气观测

该预报发布于15分钟前的16:00 UTC
风速7节,风向,在东北东转东南之间变化
温度 18°C
湿度 77%
气压 1025 hPa
能見度: 14.5公里
少量云层高于2500英尺

METAR: CYSF 211600Z AUTO 09007KT 050V110 9SM FEW025 18/14 A3027 RMK SLP258

时间: 10:15 (16:15 UTC)

预报

该预报发布于2小时和11分钟前的14:04 UTC
预报有效从21日的 14点(UTC)到 21日的 24点(UTC)
风速3节,风向多变
能見度: 10公里
阴天层高于3000英尺
短暂存在
从 21日的 14点(UTC)到 21日的 21点(UTC)
阴天层高于2000英尺
成为
从 21日的 17点(UTC)到 21日的 19点(UTC)
风速8节,风向
从 21日的 2100点(UTC)
风速8节,风向
能見度: 10公里
散云层高于3000英尺
多云层高于10000英尺
短暂存在
从 21日的 21点(UTC)到 21日的 24点(UTC)
多云层高于3000英尺

TAF: CYSF 211404Z 2114/2124 VRB03KT P6SM OVC030 TEMPO 2114/2121 OVC020 BECMG 2117/2119 09008KT FM212100 09008KT P6SM SCT030 BKN100 TEMPO 2121/2124 BKN030 RMK FCST BASED ON AUTO OBS. NXT FCST BY 211800Z

超过4000个机场的气象观测和天气预报(METAR&TAF报告)。

可查询的气象台以黄色和红色小点在地图上表示。

将鼠标移到小点上方,可查看气象台名称。

然后点击查看天气观测和预报。

如需切换地图:点击带黑十字的绿色按钮放大地图;点击带横线的绿色按钮缩小地图;或者点击绿色箭头查看邻近地区的地图。


METAR-TAF: